createdAt,value
2022-11-12T00:01:52.019Z,103183.19
2022-11-12T00:07:00.441Z,103174.34
2022-11-12T00:12:09.114Z,103176.63
2022-11-12T00:17:21.363Z,103181.53
2022-11-12T00:22:29.736Z,103173.56
2022-11-12T00:27:39.909Z,103171.59
2022-11-12T00:32:50.991Z,103177.91
2022-11-12T00:38:02.114Z,103188.00
2022-11-12T00:43:10.654Z,103198.34
2022-11-12T00:48:21.370Z,103181.59
2022-11-12T00:53:31.752Z,103181.41
2022-11-12T00:58:39.807Z,103159.00
2022-11-12T01:03:52.618Z,103191.97
2022-11-12T01:09:01.407Z,103196.97
2022-11-12T01:14:12.100Z,103191.75
2022-11-12T01:19:25.472Z,103202.84
2022-11-12T01:24:34.042Z,103204.25
2022-11-12T01:29:42.517Z,103201.38
2022-11-12T01:34:53.963Z,103199.38
2022-11-12T01:40:02.188Z,103187.22
2022-11-12T01:45:17.308Z,103184.34
2022-11-12T01:50:34.590Z,103194.22
2022-11-12T01:55:47.750Z,103196.59
2022-11-12T02:00:56.258Z,103169.22
2022-11-12T02:06:14.689Z,103173.56
2022-11-12T02:11:24.551Z,103176.41
2022-11-12T02:16:36.218Z,103172.16
2022-11-12T02:21:47.930Z,103156.38
2022-11-12T02:26:58.339Z,103142.84
2022-11-12T02:32:07.295Z,103160.44
2022-11-12T02:37:18.188Z,103149.84
2022-11-12T02:42:29.620Z,103166.25
2022-11-12T02:47:38.145Z,103168.31
2022-11-12T02:52:50.099Z,103154.84
2022-11-12T02:58:00.533Z,103146.00
2022-11-12T03:03:08.575Z,103170.00
2022-11-12T03:08:19.704Z,103146.38
2022-11-12T03:13:28.035Z,103159.56
2022-11-12T03:18:37.868Z,103156.78
2022-11-12T03:23:48.639Z,103163.91
2022-11-12T03:28:57.988Z,103163.00
2022-11-12T03:34:06.360Z,103145.56
2022-11-12T03:39:17.185Z,103163.00
2022-11-12T03:44:25.684Z,103170.00
2022-11-12T03:49:34.052Z,103160.38
2022-11-12T03:54:46.078Z,103168.66
2022-11-12T03:59:54.344Z,103157.81
2022-11-12T04:05:15.368Z,103150.53
2022-11-12T04:10:26.389Z,103165.50
2022-11-12T04:15:34.742Z,103167.31
2022-11-12T04:21:01.452Z,103171.34
2022-11-12T04:26:27.598Z,103170.63
2022-11-12T04:31:38.451Z,103144.81
2022-11-12T04:36:46.576Z,103137.28
2022-11-12T04:42:09.900Z,103143.09
2022-11-12T04:47:18.164Z,103132.91
2022-11-12T04:52:26.833Z,103117.25
2022-11-12T04:57:38.302Z,103121.38
2022-11-12T05:02:49.123Z,103125.84
2022-11-12T05:07:57.292Z,103116.06
2022-11-12T05:13:08.162Z,103101.91
2022-11-12T05:18:16.199Z,103102.81
2022-11-12T05:23:27.990Z,103118.56
2022-11-12T05:28:40.653Z,103116.00
2022-11-12T05:33:49.107Z,103101.84
2022-11-12T05:38:57.685Z,103110.41
2022-11-12T05:44:09.769Z,103119.72
2022-11-12T05:49:17.976Z,103110.75
2022-11-12T05:54:26.277Z,103110.47
2022-11-12T05:59:37.022Z,103125.03
2022-11-12T06:04:45.144Z,103120.53
2022-11-12T06:09:53.179Z,103117.28
2022-11-12T06:15:03.779Z,103131.09
2022-11-12T06:20:13.501Z,103131.41
2022-11-12T06:25:21.613Z,103133.97
2022-11-12T06:30:32.868Z,103150.22
2022-11-12T06:35:43.078Z,103147.94
2022-11-12T06:40:51.805Z,103144.41
2022-11-12T06:46:09.538Z,103150.44
2022-11-12T06:51:22.104Z,103145.69
2022-11-12T06:56:30.727Z,103161.38
2022-11-12T07:01:42.013Z,103150.25
2022-11-12T07:06:50.556Z,103143.53
2022-11-12T07:12:01.662Z,103133.88
2022-11-12T07:17:12.441Z,103140.09
2022-11-12T07:22:21.326Z,103145.50
2022-11-12T07:27:34.611Z,103152.69
2022-11-12T07:32:51.656Z,103159.19
2022-11-12T07:38:04.545Z,103156.34
2022-11-12T07:43:12.988Z,103173.38
2022-11-12T07:48:24.620Z,103159.00
2022-11-12T07:53:34.001Z,103173.59
2022-11-12T07:58:42.429Z,103180.38
2022-11-12T08:03:56.015Z,103174.03
2022-11-12T08:09:08.795Z,103184.38
2022-11-12T08:14:17.123Z,103172.22
2022-11-12T08:19:27.870Z,103168.28
2022-11-12T08:24:36.341Z,103191.41
2022-11-12T08:29:44.836Z,103185.78
2022-11-12T08:34:55.723Z,103187.34
2022-11-12T08:40:03.702Z,103184.28
2022-11-12T08:45:12.917Z,103181.28
2022-11-12T08:50:24.219Z,103183.09
2022-11-12T08:55:33.417Z,103193.56
2022-11-12T09:00:44.332Z,103184.97
2022-11-12T09:05:55.642Z,103186.84
2022-11-12T09:11:03.748Z,103194.09
2022-11-12T09:16:13.094Z,103184.75
2022-11-12T09:21:27.403Z,103179.09
2022-11-12T09:26:36.552Z,103185.09
2022-11-12T09:31:44.915Z,103183.66
2022-11-12T09:36:55.625Z,103196.06
2022-11-12T09:42:11.602Z,103166.75
2022-11-12T09:47:26.842Z,103186.44
2022-11-12T09:52:42.349Z,103175.41
2022-11-12T09:57:54.024Z,103195.47
2022-11-12T10:03:10.388Z,103201.03
2022-11-12T10:08:37.011Z,103187.88
2022-11-12T10:13:54.036Z,103190.69
2022-11-12T10:19:15.795Z,103187.44
2022-11-12T10:24:31.771Z,103197.97
2022-11-12T10:29:50.071Z,103196.09
2022-11-12T10:35:02.898Z,103201.75
2022-11-12T10:40:35.460Z,103203.47
2022-11-12T10:45:43.940Z,103199.22
2022-11-12T10:50:52.570Z,103195.72
2022-11-12T10:56:05.215Z,103195.81
2022-11-12T11:01:20.605Z,103182.88
2022-11-12T11:06:35.281Z,103170.03
2022-11-12T11:11:53.733Z,103174.91
2022-11-12T11:17:08.633Z,103159.38
2022-11-12T11:22:42.222Z,103160.50
2022-11-12T11:28:06.873Z,103155.63
2022-11-12T11:33:40.812Z,103135.84
2022-11-12T11:38:59.479Z,103131.63
2022-11-12T11:44:23.030Z,103128.41
2022-11-12T11:50:01.701Z,103110.19
2022-11-12T11:55:21.872Z,103085.69
2022-11-12T12:00:39.982Z,103076.25
2022-11-12T12:06:01.748Z,103085.81
2022-11-12T12:11:19.155Z,103079.03
2022-11-12T12:16:45.383Z,103073.25
2022-11-12T12:21:55.915Z,103068.34
2022-11-12T12:27:12.846Z,103057.22
2022-11-12T12:32:32.856Z,103057.41
2022-11-12T12:37:49.003Z,103054.97
2022-11-12T12:43:02.858Z,103034.97
2022-11-12T12:48:19.869Z,103055.38
2022-11-12T12:53:38.384Z,103054.59
2022-11-12T12:58:49.820Z,103045.94
2022-11-12T13:04:03.408Z,103035.50
2022-11-12T13:09:28.842Z,103024.22
2022-11-12T13:15:10.661Z,103019.13
2022-11-12T13:20:37.476Z,103027.00
2022-11-12T13:25:48.420Z,103017.53
2022-11-12T13:31:10.179Z,103012.53
2022-11-12T13:36:32.594Z,102996.00
2022-11-12T13:41:55.570Z,103009.13
2022-11-12T13:47:04.826Z,103005.59
2022-11-12T13:52:18.855Z,102989.72
2022-11-12T13:57:31.277Z,103006.47
2022-11-12T14:02:41.807Z,103015.94
2022-11-12T14:08:18.854Z,103017.41
2022-11-12T14:13:53.180Z,103013.16
2022-11-12T14:19:31.252Z,103013.56
2022-11-12T14:24:44.765Z,103009.88
2022-11-12T14:30:11.084Z,103002.59
2022-11-12T14:35:28.567Z,102996.28
2022-11-12T14:40:48.257Z,102985.53
2022-11-12T14:46:00.944Z,102981.13
2022-11-12T14:51:14.418Z,102973.13
2022-11-12T14:56:35.408Z,102986.03
2022-11-12T15:02:31.364Z,102973.66
2022-11-12T15:07:42.952Z,102961.28
2022-11-12T15:12:54.414Z,102968.16
2022-11-12T15:18:05.780Z,102947.69
2022-11-12T15:23:20.441Z,102960.50
2022-11-12T15:28:31.509Z,102968.59
2022-11-12T15:33:41.091Z,102962.09
2022-11-12T15:38:54.684Z,102948.66
2022-11-12T15:44:05.668Z,102950.75
2022-11-12T15:49:15.929Z,102951.34
2022-11-12T15:54:27.228Z,102953.53
2022-11-12T15:59:41.056Z,102955.66
2022-11-12T16:04:49.710Z,102962.09
2022-11-12T16:10:02.905Z,102964.31
2022-11-12T16:15:18.541Z,102960.53
2022-11-12T16:20:32.401Z,102960.16
2022-11-12T16:25:45.107Z,102943.13
2022-11-12T16:30:56.406Z,102962.94
2022-11-12T16:36:05.013Z,102942.06
2022-11-12T16:41:14.982Z,102957.63
2022-11-12T16:46:31.790Z,102958.09
2022-11-12T16:51:40.323Z,102952.56
2022-11-12T16:56:48.826Z,102966.00
2022-11-12T17:01:59.525Z,102947.78
2022-11-12T17:07:08.868Z,102968.59
2022-11-12T17:12:17.257Z,102969.16
2022-11-12T17:17:28.654Z,102955.06
2022-11-12T17:22:37.547Z,102948.75
2022-11-12T17:27:46.180Z,102939.75
2022-11-12T17:33:01.723Z,102943.97
2022-11-12T17:38:09.957Z,102935.59
2022-11-12T17:43:18.677Z,102943.38
2022-11-12T17:48:29.949Z,102949.03
2022-11-12T17:53:38.482Z,102936.66
2022-11-12T17:58:48.539Z,102916.34
2022-11-12T18:04:00.743Z,102925.69
2022-11-12T18:09:11.054Z,102934.13
2022-11-12T18:14:20.028Z,102937.56
2022-11-12T18:19:30.769Z,102935.50
2022-11-12T18:24:39.529Z,102947.44
2022-11-12T18:29:48.341Z,102944.56
2022-11-12T18:34:59.337Z,102933.75
2022-11-12T18:40:08.196Z,102929.88
2022-11-12T18:45:18.025Z,102935.91
2022-11-12T18:50:29.333Z,102934.09
2022-11-12T18:55:37.903Z,102935.44
2022-11-12T19:00:47.253Z,102932.63
2022-11-12T19:06:06.590Z,102934.19
2022-11-12T19:11:16.426Z,102921.81
2022-11-12T19:16:26.706Z,102920.00
2022-11-12T19:21:37.472Z,102911.81
2022-11-12T19:26:45.735Z,102915.16
2022-11-12T19:31:54.178Z,102911.75
2022-11-12T19:37:31.738Z,102910.56
2022-11-12T19:42:33.700Z,102906.03
2022-11-12T19:47:43.086Z,102922.50
2022-11-12T19:52:57.007Z,102907.47
2022-11-12T19:58:05.948Z,102918.69
2022-11-12T20:03:14.830Z,102921.94
2022-11-12T20:08:27.132Z,102915.72
2022-11-12T20:13:38.974Z,102914.63
2022-11-12T20:18:51.046Z,102911.88
2022-11-12T20:24:04.164Z,102906.47
2022-11-12T20:29:13.088Z,102901.22
2022-11-12T20:34:25.335Z,102885.66
2022-11-12T20:39:37.639Z,102873.19
2022-11-12T20:44:46.372Z,102871.56
2022-11-12T20:49:55.195Z,102876.59
2022-11-12T20:55:08.060Z,102861.59
2022-11-12T21:00:24.302Z,102865.88
2022-11-12T21:05:36.171Z,102866.63
2022-11-12T21:10:52.311Z,102870.03
2022-11-12T21:16:06.416Z,102871.66
2022-11-12T21:21:20.460Z,102862.84
2022-11-12T21:26:32.813Z,102866.19
2022-11-12T21:31:51.540Z,102871.13
2022-11-12T21:37:01.620Z,102870.25
2022-11-12T21:42:19.251Z,102861.28
2022-11-12T21:47:29.204Z,102867.22
2022-11-12T21:52:42.325Z,102865.44
2022-11-12T21:57:54.400Z,102866.06
2022-11-12T22:03:04.486Z,102859.47
2022-11-12T22:08:14.742Z,102868.22
2022-11-12T22:13:28.020Z,102869.84
2022-11-12T22:18:37.986Z,102855.19
2022-11-12T22:23:48.408Z,102855.16
2022-11-12T22:29:02.734Z,102856.47
2022-11-12T22:34:13.002Z,102858.19
2022-11-12T22:39:22.352Z,102854.50
2022-11-12T22:44:34.724Z,102862.25
2022-11-12T22:49:44.889Z,102848.19
2022-11-12T22:54:56.474Z,102847.31
2022-11-12T23:00:13.983Z,102844.94
2022-11-12T23:05:26.114Z,102829.28
2022-11-12T23:10:40.426Z,102834.59
2022-11-12T23:15:57.659Z,102820.88
2022-11-12T23:21:08.349Z,102818.28
2022-11-12T23:26:19.160Z,102817.41
2022-11-12T23:31:33.762Z,102803.66
2022-11-12T23:36:42.920Z,102796.66
2022-11-12T23:42:00.515Z,102797.69
2022-11-12T23:47:12.635Z,102793.25
2022-11-12T23:52:22.063Z,102788.84
2022-11-12T23:57:33.417Z,102793.94
